sensor_id;sensor_type;location;lat;lon;timestamp;P1;durP1;ratioP1;P2;durP2;ratioP2
62957;SDS011;49056;48.352;10.926;2024-02-23T00:04:47;0.15;;;0.10;;
62957;SDS011;49056;48.352;10.926;2024-02-23T00:10:08;0.03;;;0.03;;
62957;SDS011;49056;48.352;10.926;2024-02-23T00:15:28;0.50;;;0.27;;
62957;SDS011;49056;48.352;10.926;2024-02-23T00:20:48;0.08;;;0.08;;
62957;SDS011;49056;48.352;10.926;2024-02-23T00:26:08;0.40;;;0.20;;
62957;SDS011;49056;48.352;10.926;2024-02-23T00:31:29;0.32;;;0.10;;
62957;SDS011;49056;48.352;10.926;2024-02-23T00:36:49;0.40;;;0.10;;
62957;SDS011;49056;48.352;10.926;2024-02-23T00:42:09;0.40;;;0.20;;
62957;SDS011;49056;48.352;10.926;2024-02-23T00:47:30;0.00;;;0.00;;
62957;SDS011;49056;48.352;10.926;2024-02-23T00:52:50;0.00;;;0.00;;
62957;SDS011;49056;48.352;10.926;2024-02-23T00:58:11;0.05;;;0.00;;
62957;SDS011;49056;48.352;10.926;2024-02-23T01:03:31;0.00;;;0.00;;
62957;SDS011;49056;48.352;10.926;2024-02-23T01:08:51;0.25;;;0.10;;
62957;SDS011;49056;48.352;10.926;2024-02-23T01:14:12;0.10;;;0.10;;
62957;SDS011;49056;48.352;10.926;2024-02-23T01:19:32;0.10;;;0.00;;
62957;SDS011;49056;48.352;10.926;2024-02-23T01:24:53;0.00;;;0.00;;
62957;SDS011;49056;48.352;10.926;2024-02-23T01:30:13;0.05;;;0.00;;
62957;SDS011;49056;48.352;10.926;2024-02-23T01:35:33;0.00;;;0.00;;
62957;SDS011;49056;48.352;10.926;2024-02-23T01:40:54;0.00;;;0.00;;
62957;SDS011;49056;48.352;10.926;2024-02-23T01:46:14;0.57;;;0.10;;
62957;SDS011;49056;48.352;10.926;2024-02-23T01:51:38;0.00;;;0.00;;
62957;SDS011;49056;48.352;10.926;2024-02-23T01:56:59;0.00;;;0.00;;
62957;SDS011;49056;48.352;10.926;2024-02-23T02:02:19;0.65;;;0.08;;
62957;SDS011;49056;48.352;10.926;2024-02-23T02:07:40;0.00;;;0.00;;
62957;SDS011;49056;48.352;10.926;2024-02-23T02:13:02;0.00;;;0.00;;
62957;SDS011;49056;48.352;10.926;2024-02-23T02:18:23;0.00;;;0.00;;
62957;SDS011;49056;48.352;10.926;2024-02-23T02:23:43;0.00;;;0.00;;
62957;SDS011;49056;48.352;10.926;2024-02-23T02:29:03;0.00;;;0.00;;
62957;SDS011;49056;48.352;10.926;2024-02-23T02:34:24;0.10;;;0.10;;
62957;SDS011;49056;48.352;10.926;2024-02-23T02:39:44;0.00;;;0.00;;
62957;SDS011;49056;48.352;10.926;2024-02-23T02:45:04;0.53;;;0.20;;
62957;SDS011;49056;48.352;10.926;2024-02-23T02:50:25;0.00;;;0.00;;
62957;SDS011;49056;48.352;10.926;2024-02-23T02:55:45;0.10;;;0.00;;
62957;SDS011;49056;48.352;10.926;2024-02-23T03:01:05;0.00;;;0.00;;
62957;SDS011;49056;48.352;10.926;2024-02-23T03:06:26;0.00;;;0.00;;
62957;SDS011;49056;48.352;10.926;2024-02-23T03:11:46;0.00;;;0.00;;
62957;SDS011;49056;48.352;10.926;2024-02-23T03:17:07;0.10;;;0.00;;
62957;SDS011;49056;48.352;10.926;2024-02-23T03:22:27;0.00;;;0.00;;
62957;SDS011;49056;48.352;10.926;2024-02-23T03:27:47;0.00;;;0.00;;
62957;SDS011;49056;48.352;10.926;2024-02-23T03:33:08;0.00;;;0.00;;
62957;SDS011;49056;48.352;10.926;2024-02-23T03:38:28;0.00;;;0.00;;
62957;SDS011;49056;48.352;10.926;2024-02-23T03:43:50;0.00;;;0.00;;
62957;SDS011;49056;48.352;10.926;2024-02-23T03:49:10;0.00;;;0.00;;
62957;SDS011;49056;48.352;10.926;2024-02-23T03:54:32;0.00;;;0.00;;
62957;SDS011;49056;48.352;10.926;2024-02-23T03:59:55;0.00;;;0.00;;
62957;SDS011;49056;48.352;10.926;2024-02-23T04:05:15;0.30;;;0.00;;
62957;SDS011;49056;48.352;10.926;2024-02-23T04:10:36;0.22;;;0.05;;
62957;SDS011;49056;48.352;10.926;2024-02-23T04:15:56;0.00;;;0.00;;
62957;SDS011;49056;48.352;10.926;2024-02-23T04:21:17;0.00;;;0.00;;
62957;SDS011;49056;48.352;10.926;2024-02-23T04:26:37;0.00;;;0.00;;
62957;SDS011;49056;48.352;10.926;2024-02-23T04:31:59;0.00;;;0.00;;
62957;SDS011;49056;48.352;10.926;2024-02-23T04:37:19;0.00;;;0.00;;
62957;SDS011;49056;48.352;10.926;2024-02-23T04:42:40;0.00;;;0.00;;
62957;SDS011;49056;48.352;10.926;2024-02-23T04:48:00;0.00;;;0.00;;
62957;SDS011;49056;48.352;10.926;2024-02-23T04:53:20;0.00;;;0.00;;
62957;SDS011;49056;48.352;10.926;2024-02-23T04:58:40;0.00;;;0.00;;
62957;SDS011;49056;48.352;10.926;2024-02-23T05:04:03;0.00;;;0.00;;
62957;SDS011;49056;48.352;10.926;2024-02-23T05:09:23;0.00;;;0.00;;
62957;SDS011;49056;48.352;10.926;2024-02-23T05:14:43;0.00;;;0.00;;
62957;SDS011;49056;48.352;10.926;2024-02-23T05:20:04;0.00;;;0.00;;
62957;SDS011;49056;48.352;10.926;2024-02-23T05:25:30;0.10;;;0.00;;
62957;SDS011;49056;48.352;10.926;2024-02-23T05:30:50;0.00;;;0.00;;
62957;SDS011;49056;48.352;10.926;2024-02-23T05:36:11;0.00;;;0.00;;
62957;SDS011;49056;48.352;10.926;2024-02-23T05:41:31;0.00;;;0.00;;
62957;SDS011;49056;48.352;10.926;2024-02-23T05:46:51;0.00;;;0.00;;
62957;SDS011;49056;48.352;10.926;2024-02-23T05:52:12;0.03;;;0.00;;
62957;SDS011;49056;48.352;10.926;2024-02-23T05:57:32;0.00;;;0.00;;
62957;SDS011;49056;48.352;10.926;2024-02-23T06:02:52;0.00;;;0.00;;
62957;SDS011;49056;48.352;10.926;2024-02-23T06:08:12;0.10;;;0.03;;
62957;SDS011;49056;48.352;10.926;2024-02-23T06:13:33;0.00;;;0.00;;
62957;SDS011;49056;48.352;10.926;2024-02-23T06:18:54;0.00;;;0.00;;
62957;SDS011;49056;48.352;10.926;2024-02-23T06:24:14;0.00;;;0.00;;
62957;SDS011;49056;48.352;10.926;2024-02-23T06:29:35;0.10;;;0.00;;
62957;SDS011;49056;48.352;10.926;2024-02-23T06:34:55;0.00;;;0.00;;
62957;SDS011;49056;48.352;10.926;2024-02-23T06:40:15;0.00;;;0.00;;
62957;SDS011;49056;48.352;10.926;2024-02-23T06:45:36;0.00;;;0.00;;
62957;SDS011;49056;48.352;10.926;2024-02-23T06:50:56;0.00;;;0.00;;
62957;SDS011;49056;48.352;10.926;2024-02-23T06:56:17;0.00;;;0.00;;
62957;SDS011;49056;48.352;10.926;2024-02-23T07:01:47;0.00;;;0.00;;
62957;SDS011;49056;48.352;10.926;2024-02-23T07:07:07;0.10;;;0.10;;
62957;SDS011;49056;48.352;10.926;2024-02-23T07:12:28;0.00;;;0.00;;
62957;SDS011;49056;48.352;10.926;2024-02-23T07:17:49;0.15;;;0.00;;
62957;SDS011;49056;48.352;10.926;2024-02-23T07:23:09;0.00;;;0.00;;
62957;SDS011;49056;48.352;10.926;2024-02-23T07:28:30;0.57;;;0.05;;
62957;SDS011;49056;48.352;10.926;2024-02-23T07:33:50;0.00;;;0.00;;
62957;SDS011;49056;48.352;10.926;2024-02-23T07:39:11;0.10;;;0.10;;
62957;SDS011;49056;48.352;10.926;2024-02-23T07:44:32;0.00;;;0.00;;
62957;SDS011;49056;48.352;10.926;2024-02-23T07:49:52;0.20;;;0.07;;
62957;SDS011;49056;48.352;10.926;2024-02-23T07:55:12;0.00;;;0.00;;
62957;SDS011;49056;48.352;10.926;2024-02-23T08:00:33;0.00;;;0.00;;
62957;SDS011;49056;48.352;10.926;2024-02-23T08:05:55;0.17;;;0.00;;
62957;SDS011;49056;48.352;10.926;2024-02-23T08:11:15;0.00;;;0.00;;
62957;SDS011;49056;48.352;10.926;2024-02-23T08:16:35;0.00;;;0.00;;
62957;SDS011;49056;48.352;10.926;2024-02-23T08:21:56;0.10;;;0.10;;
62957;SDS011;49056;48.352;10.926;2024-02-23T08:27:17;0.10;;;0.00;;
62957;SDS011;49056;48.352;10.926;2024-02-23T08:32:37;0.20;;;0.03;;
62957;SDS011;49056;48.352;10.926;2024-02-23T08:37:58;0.10;;;0.00;;
62957;SDS011;49056;48.352;10.926;2024-02-23T08:43:18;0.30;;;0.10;;
62957;SDS011;49056;48.352;10.926;2024-02-23T08:48:40;0.00;;;0.00;;
62957;SDS011;49056;48.352;10.926;2024-02-23T08:54:00;0.00;;;0.00;;
62957;SDS011;49056;48.352;10.926;2024-02-23T08:59:25;0.00;;;0.00;;
62957;SDS011;49056;48.352;10.926;2024-02-23T09:04:45;0.00;;;0.00;;
62957;SDS011;49056;48.352;10.926;2024-02-23T09:10:06;0.05;;;0.00;;
62957;SDS011;49056;48.352;10.926;2024-02-23T09:15:26;0.10;;;0.00;;
62957;SDS011;49056;48.352;10.926;2024-02-23T09:20:47;0.22;;;0.10;;
62957;SDS011;49056;48.352;10.926;2024-02-23T09:26:10;0.00;;;0.00;;
62957;SDS011;49056;48.352;10.926;2024-02-23T09:31:33;0.10;;;0.10;;
62957;SDS011;49056;48.352;10.926;2024-02-23T09:36:53;0.40;;;0.07;;
62957;SDS011;49056;48.352;10.926;2024-02-23T09:42:14;0.00;;;0.00;;
62957;SDS011;49056;48.352;10.926;2024-02-23T09:47:34;0.00;;;0.00;;
62957;SDS011;49056;48.352;10.926;2024-02-23T09:52:56;0.40;;;0.10;;
62957;SDS011;49056;48.352;10.926;2024-02-23T09:58:16;0.08;;;0.00;;
62957;SDS011;49056;48.352;10.926;2024-02-23T10:03:37;0.03;;;0.03;;
62957;SDS011;49056;48.352;10.926;2024-02-23T10:08:58;0.70;;;0.30;;
62957;SDS011;49056;48.352;10.926;2024-02-23T10:14:19;0.10;;;0.00;;
62957;SDS011;49056;48.352;10.926;2024-02-23T10:19:39;0.00;;;0.00;;
62957;SDS011;49056;48.352;10.926;2024-02-23T10:24:59;0.45;;;0.00;;
62957;SDS011;49056;48.352;10.926;2024-02-23T10:30:19;0.20;;;0.20;;
62957;SDS011;49056;48.352;10.926;2024-02-23T10:35:40;0.00;;;0.00;;
62957;SDS011;49056;48.352;10.926;2024-02-23T10:41:01;0.00;;;0.00;;
62957;SDS011;49056;48.352;10.926;2024-02-23T10:46:24;0.30;;;0.10;;
62957;SDS011;49056;48.352;10.926;2024-02-23T10:51:45;0.10;;;0.10;;
62957;SDS011;49056;48.352;10.926;2024-02-23T10:57:07;0.40;;;0.17;;
62957;SDS011;49056;48.352;10.926;2024-02-23T11:02:28;0.00;;;0.00;;
62957;SDS011;49056;48.352;10.926;2024-02-23T11:07:51;0.17;;;0.10;;
62957;SDS011;49056;48.352;10.926;2024-02-23T11:13:11;1.20;;;0.37;;
62957;SDS011;49056;48.352;10.926;2024-02-23T11:18:33;0.10;;;0.10;;
62957;SDS011;49056;48.352;10.926;2024-02-23T11:23:54;0.15;;;0.10;;
62957;SDS011;49056;48.352;10.926;2024-02-23T11:29:14;0.00;;;0.00;;
62957;SDS011;49056;48.352;10.926;2024-02-23T11:34:35;0.00;;;0.00;;
62957;SDS011;49056;48.352;10.926;2024-02-23T11:39:55;0.17;;;0.08;;
62957;SDS011;49056;48.352;10.926;2024-02-23T11:45:16;0.20;;;0.15;;
62957;SDS011;49056;48.352;10.926;2024-02-23T11:50:36;0.10;;;0.00;;
62957;SDS011;49056;48.352;10.926;2024-02-23T11:55:56;0.47;;;0.17;;
62957;SDS011;49056;48.352;10.926;2024-02-23T12:01:17;0.25;;;0.10;;
62957;SDS011;49056;48.352;10.926;2024-02-23T12:06:37;0.20;;;0.10;;
62957;SDS011;49056;48.352;10.926;2024-02-23T12:11:58;0.10;;;0.10;;
62957;SDS011;49056;48.352;10.926;2024-02-23T12:17:19;1.37;;;0.13;;
62957;SDS011;49056;48.352;10.926;2024-02-23T12:22:40;0.10;;;0.10;;
62957;SDS011;49056;48.352;10.926;2024-02-23T12:28:00;0.32;;;0.10;;
62957;SDS011;49056;48.352;10.926;2024-02-23T12:33:21;0.17;;;0.07;;
62957;SDS011;49056;48.352;10.926;2024-02-23T12:38:41;0.32;;;0.20;;
62957;SDS011;49056;48.352;10.926;2024-02-23T12:44:01;0.52;;;0.30;;
62957;SDS011;49056;48.352;10.926;2024-02-23T12:49:22;1.10;;;0.10;;
62957;SDS011;49056;48.352;10.926;2024-02-23T12:54:42;0.28;;;0.10;;
62957;SDS011;49056;48.352;10.926;2024-02-23T13:00:03;0.03;;;0.00;;
62957;SDS011;49056;48.352;10.926;2024-02-23T13:05:23;0.43;;;0.20;;
62957;SDS011;49056;48.352;10.926;2024-02-23T13:10:43;0.10;;;0.00;;
62957;SDS011;49056;48.352;10.926;2024-02-23T13:16:04;0.20;;;0.10;;
62957;SDS011;49056;48.352;10.926;2024-02-23T13:21:24;0.98;;;0.20;;
62957;SDS011;49056;48.352;10.926;2024-02-23T13:26:44;0.05;;;0.05;;
62957;SDS011;49056;48.352;10.926;2024-02-23T13:32:05;0.88;;;0.20;;
62957;SDS011;49056;48.352;10.926;2024-02-23T13:37:25;0.20;;;0.10;;
62957;SDS011;49056;48.352;10.926;2024-02-23T13:42:47;0.30;;;0.20;;
62957;SDS011;49056;48.352;10.926;2024-02-23T13:48:10;1.27;;;0.20;;
62957;SDS011;49056;48.352;10.926;2024-02-23T13:53:30;0.70;;;0.20;;
62957;SDS011;49056;48.352;10.926;2024-02-23T13:58:51;0.37;;;0.15;;
62957;SDS011;49056;48.352;10.926;2024-02-23T14:04:11;0.45;;;0.10;;
62957;SDS011;49056;48.352;10.926;2024-02-23T14:09:31;0.10;;;0.10;;
62957;SDS011;49056;48.352;10.926;2024-02-23T14:14:52;0.20;;;0.20;;
62957;SDS011;49056;48.352;10.926;2024-02-23T14:20:12;0.10;;;0.10;;
62957;SDS011;49056;48.352;10.926;2024-02-23T14:25:32;0.33;;;0.03;;
62957;SDS011;49056;48.352;10.926;2024-02-23T14:30:53;0.37;;;0.00;;
62957;SDS011;49056;48.352;10.926;2024-02-23T14:36:13;0.32;;;0.10;;
62957;SDS011;49056;48.352;10.926;2024-02-23T14:41:34;0.10;;;0.10;;
62957;SDS011;49056;48.352;10.926;2024-02-23T14:46:54;0.10;;;0.10;;
62957;SDS011;49056;48.352;10.926;2024-02-23T14:52:15;0.47;;;0.15;;
62957;SDS011;49056;48.352;10.926;2024-02-23T14:57:35;0.00;;;0.00;;
62957;SDS011;49056;48.352;10.926;2024-02-23T15:02:56;0.15;;;0.10;;
62957;SDS011;49056;48.352;10.926;2024-02-23T15:08:17;0.20;;;0.20;;
62957;SDS011;49056;48.352;10.926;2024-02-23T15:13:37;0.10;;;0.10;;
62957;SDS011;49056;48.352;10.926;2024-02-23T15:18:57;0.30;;;0.00;;
62957;SDS011;49056;48.352;10.926;2024-02-23T15:24:18;0.30;;;0.10;;
62957;SDS011;49056;48.352;10.926;2024-02-23T15:29:40;0.37;;;0.20;;
62957;SDS011;49056;48.352;10.926;2024-02-23T15:35:00;1.08;;;0.30;;
62957;SDS011;49056;48.352;10.926;2024-02-23T15:40:22;0.55;;;0.28;;
62957;SDS011;49056;48.352;10.926;2024-02-23T15:45:42;0.45;;;0.30;;
62957;SDS011;49056;48.352;10.926;2024-02-23T15:51:04;0.37;;;0.10;;
62957;SDS011;49056;48.352;10.926;2024-02-23T15:56:24;0.20;;;0.20;;
62957;SDS011;49056;48.352;10.926;2024-02-23T16:01:44;0.68;;;0.20;;
62957;SDS011;49056;48.352;10.926;2024-02-23T16:07:05;0.22;;;0.20;;
62957;SDS011;49056;48.352;10.926;2024-02-23T16:12:26;0.10;;;0.10;;
62957;SDS011;49056;48.352;10.926;2024-02-23T16:17:47;0.20;;;0.10;;
62957;SDS011;49056;48.352;10.926;2024-02-23T16:23:07;1.73;;;0.33;;
62957;SDS011;49056;48.352;10.926;2024-02-23T16:28:27;0.20;;;0.20;;
62957;SDS011;49056;48.352;10.926;2024-02-23T16:33:48;0.25;;;0.20;;
62957;SDS011;49056;48.352;10.926;2024-02-23T16:39:08;0.10;;;0.10;;
62957;SDS011;49056;48.352;10.926;2024-02-23T16:44:29;0.37;;;0.10;;
62957;SDS011;49056;48.352;10.926;2024-02-23T16:49:49;0.32;;;0.20;;
62957;SDS011;49056;48.352;10.926;2024-02-23T16:55:09;0.47;;;0.10;;
62957;SDS011;49056;48.352;10.926;2024-02-23T17:00:30;0.85;;;0.20;;
62957;SDS011;49056;48.352;10.926;2024-02-23T17:05:50;0.13;;;0.10;;
62957;SDS011;49056;48.352;10.926;2024-02-23T17:11:10;0.50;;;0.15;;
62957;SDS011;49056;48.352;10.926;2024-02-23T17:16:31;0.20;;;0.10;;
62957;SDS011;49056;48.352;10.926;2024-02-23T17:21:51;0.10;;;0.10;;
62957;SDS011;49056;48.352;10.926;2024-02-23T17:27:11;0.90;;;0.23;;
62957;SDS011;49056;48.352;10.926;2024-02-23T17:32:32;0.15;;;0.08;;
62957;SDS011;49056;48.352;10.926;2024-02-23T17:37:52;0.07;;;0.07;;
62957;SDS011;49056;48.352;10.926;2024-02-23T17:43:12;0.00;;;0.00;;
62957;SDS011;49056;48.352;10.926;2024-02-23T17:48:33;0.30;;;0.25;;
62957;SDS011;49056;48.352;10.926;2024-02-23T17:53:53;0.10;;;0.10;;
62957;SDS011;49056;48.352;10.926;2024-02-23T17:59:18;0.10;;;0.10;;
62957;SDS011;49056;48.352;10.926;2024-02-23T18:04:38;0.10;;;0.10;;
62957;SDS011;49056;48.352;10.926;2024-02-23T18:09:59;0.20;;;0.10;;
62957;SDS011;49056;48.352;10.926;2024-02-23T18:15:20;0.25;;;0.15;;
62957;SDS011;49056;48.352;10.926;2024-02-23T18:20:40;0.35;;;0.15;;
62957;SDS011;49056;48.352;10.926;2024-02-23T18:26:02;0.88;;;0.25;;
62957;SDS011;49056;48.352;10.926;2024-02-23T18:31:22;0.60;;;0.30;;
62957;SDS011;49056;48.352;10.926;2024-02-23T18:36:43;0.90;;;0.30;;
62957;SDS011;49056;48.352;10.926;2024-02-23T18:42:04;0.10;;;0.10;;
62957;SDS011;49056;48.352;10.926;2024-02-23T18:47:24;0.87;;;0.40;;
62957;SDS011;49056;48.352;10.926;2024-02-23T18:52:44;0.90;;;0.30;;
62957;SDS011;49056;48.352;10.926;2024-02-23T18:58:05;0.52;;;0.25;;
62957;SDS011;49056;48.352;10.926;2024-02-23T19:03:27;2.20;;;0.30;;
62957;SDS011;49056;48.352;10.926;2024-02-23T19:08:47;1.23;;;0.50;;
62957;SDS011;49056;48.352;10.926;2024-02-23T19:14:08;1.52;;;0.40;;
62957;SDS011;49056;48.352;10.926;2024-02-23T19:19:28;0.62;;;0.40;;
62957;SDS011;49056;48.352;10.926;2024-02-23T19:24:48;0.70;;;0.27;;
62957;SDS011;49056;48.352;10.926;2024-02-23T19:30:09;0.13;;;0.13;;
62957;SDS011;49056;48.352;10.926;2024-02-23T19:35:32;0.43;;;0.30;;
62957;SDS011;49056;48.352;10.926;2024-02-23T19:40:52;1.00;;;0.57;;
62957;SDS011;49056;48.352;10.926;2024-02-23T19:46:12;0.60;;;0.30;;
62957;SDS011;49056;48.352;10.926;2024-02-23T19:51:37;0.37;;;0.15;;
62957;SDS011;49056;48.352;10.926;2024-02-23T19:56:58;1.75;;;0.40;;
62957;SDS011;49056;48.352;10.926;2024-02-23T20:02:18;1.50;;;0.43;;
62957;SDS011;49056;48.352;10.926;2024-02-23T20:07:38;0.30;;;0.30;;
62957;SDS011;49056;48.352;10.926;2024-02-23T20:12:58;0.50;;;0.40;;
62957;SDS011;49056;48.352;10.926;2024-02-23T20:18:19;0.45;;;0.25;;
62957;SDS011;49056;48.352;10.926;2024-02-23T20:23:39;1.05;;;0.55;;
62957;SDS011;49056;48.352;10.926;2024-02-23T20:29:01;0.62;;;0.40;;
62957;SDS011;49056;48.352;10.926;2024-02-23T20:34:21;1.20;;;0.80;;
62957;SDS011;49056;48.352;10.926;2024-02-23T20:39:42;1.33;;;0.80;;
62957;SDS011;49056;48.352;10.926;2024-02-23T20:45:02;0.47;;;0.27;;
62957;SDS011;49056;48.352;10.926;2024-02-23T20:50:23;0.50;;;0.40;;
62957;SDS011;49056;48.352;10.926;2024-02-23T20:55:43;1.55;;;0.50;;
62957;SDS011;49056;48.352;10.926;2024-02-23T21:01:03;0.85;;;0.50;;
62957;SDS011;49056;48.352;10.926;2024-02-23T21:06:26;1.98;;;0.55;;
62957;SDS011;49056;48.352;10.926;2024-02-23T21:11:46;0.68;;;0.30;;
62957;SDS011;49056;48.352;10.926;2024-02-23T21:17:07;1.62;;;0.62;;
62957;SDS011;49056;48.352;10.926;2024-02-23T21:22:28;0.80;;;0.50;;
62957;SDS011;49056;48.352;10.926;2024-02-23T21:27:48;1.48;;;0.55;;
62957;SDS011;49056;48.352;10.926;2024-02-23T21:33:08;0.90;;;0.53;;
62957;SDS011;49056;48.352;10.926;2024-02-23T21:38:29;0.80;;;0.45;;
62957;SDS011;49056;48.352;10.926;2024-02-23T21:43:49;1.48;;;0.62;;
62957;SDS011;49056;48.352;10.926;2024-02-23T21:49:09;1.10;;;0.62;;
62957;SDS011;49056;48.352;10.926;2024-02-23T21:54:29;1.50;;;0.70;;
62957;SDS011;49056;48.352;10.926;2024-02-23T21:59:50;1.10;;;0.37;;
62957;SDS011;49056;48.352;10.926;2024-02-23T22:05:13;1.10;;;0.50;;
62957;SDS011;49056;48.352;10.926;2024-02-23T22:10:33;1.13;;;0.60;;
62957;SDS011;49056;48.352;10.926;2024-02-23T22:15:54;0.68;;;0.43;;
62957;SDS011;49056;48.352;10.926;2024-02-23T22:21:15;1.30;;;0.70;;
62957;SDS011;49056;48.352;10.926;2024-02-23T22:26:36;0.93;;;0.40;;
62957;SDS011;49056;48.352;10.926;2024-02-23T22:31:57;0.82;;;0.43;;
62957;SDS011;49056;48.352;10.926;2024-02-23T22:37:18;0.73;;;0.45;;
62957;SDS011;49056;48.352;10.926;2024-02-23T22:42:39;1.40;;;0.68;;
62957;SDS011;49056;48.352;10.926;2024-02-23T22:47:59;1.35;;;0.77;;
62957;SDS011;49056;48.352;10.926;2024-02-23T22:53:19;1.87;;;0.57;;
62957;SDS011;49056;48.352;10.926;2024-02-23T22:58:40;1.40;;;0.50;;
62957;SDS011;49056;48.352;10.926;2024-02-23T23:04:00;1.15;;;0.50;;
62957;SDS011;49056;48.352;10.926;2024-02-23T23:09:20;0.60;;;0.30;;
62957;SDS011;49056;48.352;10.926;2024-02-23T23:14:41;1.50;;;0.43;;
62957;SDS011;49056;48.352;10.926;2024-02-23T23:20:01;0.70;;;0.40;;
62957;SDS011;49056;48.352;10.926;2024-02-23T23:25:25;0.30;;;0.30;;
62957;SDS011;49056;48.352;10.926;2024-02-23T23:30:45;0.73;;;0.22;;
62957;SDS011;49056;48.352;10.926;2024-02-23T23:36:09;1.27;;;0.68;;
62957;SDS011;49056;48.352;10.926;2024-02-23T23:41:30;0.60;;;0.40;;
62957;SDS011;49056;48.352;10.926;2024-02-23T23:46:50;0.57;;;0.30;;
62957;SDS011;49056;48.352;10.926;2024-02-23T23:52:11;0.45;;;0.40;;
62957;SDS011;49056;48.352;10.926;2024-02-23T23:57:31;1.10;;;0.40;;
